Time;durP1;ratioP1;P1;durP2;ratioP2;P2;SDS_P1;SDS_P2;PMS_P1;PMS_P2;Temp;Humidity;BMP_temperature;BMP_pressure;BME280_temperature;BME280_humidity;BME280_pressure;Samples;Min_cycle;Max_cycle;Signal;HPM_P1;HPM_P2
2022/04/10 04:02:45;;;;;;;9.73;7.40;;;0.80;99.90;;;;;;6251297;22;20498;-78
2022/04/10 04:05:11;;;;;;;11.00;7.18;;;0.70;99.90;;;;;;6253500;22;20452;-78
2022/04/10 04:07:37;;;;;;;10.48;6.75;;;0.60;99.90;;;;;;6253275;22;20004;-77
2022/04/10 04:10:05;;;;;;;10.30;6.90;;;0.60;99.90;;;;;;6253014;22;20056;-77
2022/04/10 04:12:31;;;;;;;12.02;7.20;;;0.50;99.90;;;;;;6251315;22;20367;-77
2022/04/10 04:14:57;;;;;;;13.00;7.93;;;0.60;99.90;;;;;;6296332;22;20027;-75
2022/04/10 04:17:23;;;;;;;12.65;7.72;;;0.60;99.90;;;;;;6318279;22;20011;-75
2022/04/10 04:19:50;;;;;;;13.63;7.53;;;0.70;99.90;;;;;;6317480;22;20008;-74
2022/04/10 04:22:16;;;;;;;13.93;7.47;;;0.70;99.90;;;;;;6317643;22;20035;-74
2022/04/10 04:24:42;;;;;;;10.90;7.45;;;0.70;99.90;;;;;;6316923;22;20019;-75
2022/04/10 04:27:08;;;;;;;13.52;7.93;;;0.80;99.90;;;;;;6318268;22;20063;-75
2022/04/10 04:29:33;;;;;;;15.18;8.23;;;0.80;99.90;;;;;;6317860;22;20011;-74
2022/04/10 04:31:59;;;;;;;13.15;8.13;;;0.80;99.90;;;;;;6318020;22;20462;-74
2022/04/10 04:34:25;;;;;;;13.20;8.43;;;0.80;99.90;;;;;;6317063;22;20444;-75
2022/04/10 04:36:50;;;;;;;13.73;8.20;;;0.80;99.90;;;;;;6318027;22;20015;-75
2022/04/10 04:39:16;;;;;;;11.35;8.27;;;0.90;99.90;;;;;;6318232;22;20023;-75
2022/04/10 04:41:42;;;;;;;12.98;8.40;;;0.90;99.90;;;;;;6317679;22;20082;-75
2022/04/10 04:44:07;;;;;;;12.38;7.80;;;0.80;99.90;;;;;;6317583;22;20004;-75
2022/04/10 04:46:33;;;;;;;12.77;8.38;;;0.80;99.90;;;;;;6315987;22;20015;-75
2022/04/10 04:48:58;;;;;;;16.60;9.40;;;0.80;99.90;;;;;;6317286;22;20003;-75
2022/04/10 04:51:24;;;;;;;15.07;8.40;;;0.80;99.90;;;;;;6317466;22;20004;-75
2022/04/10 04:53:50;;;;;;;13.80;8.32;;;0.80;99.90;;;;;;6315963;22;20099;-75
2022/04/10 04:56:16;;;;;;;16.48;8.57;;;0.80;99.90;;;;;;6316370;22;20038;-75
2022/04/10 04:58:43;;;;;;;12.98;8.55;;;1.00;99.90;;;;;;6315664;22;20006;-74
2022/04/10 05:01:08;;;;;;;13.48;8.55;;;1.10;99.90;;;;;;6314143;22;20766;-75
2022/04/10 05:03:34;;;;;;;14.38;8.38;;;1.20;99.90;;;;;;6317524;22;20008;-75
2022/04/10 05:06:00;;;;;;;15.63;8.48;;;1.20;99.90;;;;;;6319499;22;20411;-75
2022/04/10 05:08:26;;;;;;;14.52;8.63;;;1.20;99.90;;;;;;6319051;22;20008;-75
2022/04/10 05:10:51;;;;;;;14.52;8.38;;;1.20;99.90;;;;;;6319148;22;20008;-75
2022/04/10 05:13:17;;;;;;;20.90;8.68;;;1.30;99.90;;;;;;6317820;22;20440;-75
2022/04/10 05:15:42;;;;;;;13.90;8.60;;;1.30;99.90;;;;;;6317210;22;20432;-75
2022/04/10 05:18:08;;;;;;;12.82;8.52;;;1.30;99.90;;;;;;6319083;22;20094;-74
2022/04/10 05:20:34;;;;;;;17.00;8.20;;;1.40;99.90;;;;;;6317122;22;20011;-75
2022/04/10 05:23:00;;;;;;;15.20;8.32;;;1.60;99.90;;;;;;6318630;22;20495;-76
2022/04/10 05:25:25;;;;;;;11.02;7.78;;;1.70;99.90;;;;;;6318746;22;20000;-76
2022/04/10 05:27:51;;;;;;;15.40;8.38;;;1.70;99.90;;;;;;6316975;22;20023;-75
2022/04/10 05:30:16;;;;;;;13.68;8.00;;;1.90;99.90;;;;;;6319123;22;20052;-75
2022/04/10 05:32:43;;;;;;;13.52;7.25;;;1.90;99.90;;;;;;6318647;22;20008;-76
2022/04/10 05:35:12;;;;;;;11.15;7.63;;;1.90;99.90;;;;;;6317415;22;20474;-75
2022/04/10 05:37:38;;;;;;;12.65;7.78;;;2.00;99.90;;;;;;6318460;22;20443;-75
2022/04/10 05:40:04;;;;;;;10.77;7.32;;;2.00;99.90;;;;;;6318532;22;20079;-75
2022/04/10 05:42:30;;;;;;;9.73;6.60;;;2.00;99.90;;;;;;6317223;22;20706;-75
2022/04/10 05:45:03;;;;;;;11.75;7.20;;;2.00;99.90;;;;;;6318268;22;20004;-76
2022/04/10 05:47:29;;;;;;;11.60;7.20;;;2.10;99.90;;;;;;6318219;22;20008;-76
2022/04/10 05:49:55;;;;;;;11.98;7.53;;;2.10;99.90;;;;;;6317640;22;20061;-76
2022/04/10 05:52:20;;;;;;;12.38;7.00;;;2.20;99.90;;;;;;6317103;22;20462;-74
2022/04/10 05:54:46;;;;;;;13.63;7.10;;;2.40;99.90;;;;;;6316615;22;20038;-76
2022/04/10 05:57:12;;;;;;;9.75;7.13;;;2.50;99.90;;;;;;6318704;22;20010;-77
2022/04/10 05:59:37;;;;;;;10.73;6.95;;;2.70;99.90;;;;;;6318396;22;20082;-76
2022/04/10 06:02:03;;;;;;;11.75;7.20;;;3.00;99.90;;;;;;6319031;22;20351;-76
2022/04/10 06:04:29;;;;;;;10.00;6.57;;;3.20;99.90;;;;;;6318466;22;20007;-76
2022/04/10 06:06:54;;;;;;;10.82;6.57;;;3.40;99.90;;;;;;6318053;22;20078;-76
2022/04/10 06:09:20;;;;;;;9.45;6.15;;;3.60;99.90;;;;;;6318721;22;20069;-76
2022/04/10 06:11:45;;;;;;;14.23;6.15;;;3.70;99.90;;;;;;6317506;22;20134;-75
2022/04/10 06:14:11;;;;;;;9.48;5.80;;;3.80;99.90;;;;;;6316454;22;20008;-75
2022/04/10 06:16:36;;;;;;;9.35;5.80;;;3.90;99.90;;;;;;6318677;22;20008;-75
2022/04/10 06:19:02;;;;;;;12.45;6.05;;;4.00;99.90;;;;;;6318610;22;20000;-75
2022/04/10 06:21:28;;;;;;;7.30;5.63;;;4.10;99.90;;;;;;6316609;22;20063;-75
2022/04/10 06:23:54;;;;;;;6.70;5.55;;;4.30;99.90;;;;;;6318449;22;20035;-76
2022/04/10 06:26:20;;;;;;;7.85;5.07;;;4.40;99.90;;;;;;6318762;22;20087;-77
2022/04/10 06:28:45;;;;;;;7.82;5.28;;;4.50;99.90;;;;;;6318181;22;20000;-76
2022/04/10 06:31:11;;;;;;;9.35;5.80;;;4.60;99.90;;;;;;6316475;22;20308;-76
2022/04/10 06:33:36;;;;;;;6.65;4.85;;;4.70;99.90;;;;;;6318031;22;20366;-75
2022/04/10 06:36:02;;;;;;;7.07;5.13;;;4.80;99.90;;;;;;6316524;22;20008;-75
2022/04/10 06:38:28;;;;;;;7.30;4.80;;;4.90;99.90;;;;;;6318544;22;20004;-76
2022/04/10 06:40:53;;;;;;;9.18;5.28;;;5.00;99.90;;;;;;6318578;22;20065;-76
2022/04/10 06:43:20;;;;;;;7.07;4.68;;;5.10;99.90;;;;;;6317400;22;20035;-75
2022/04/10 06:45:46;;;;;;;8.80;4.28;;;5.20;99.90;;;;;;6315419;22;20073;-75
2022/04/10 06:48:15;;;;;;;8.02;4.90;;;5.30;99.90;;;;;;6317636;22;20004;-76
2022/04/10 06:50:41;;;;;;;9.43;4.68;;;5.40;99.90;;;;;;6317848;22;20451;-75
2022/04/10 06:53:15;;;;;;;4.97;4.30;;;5.40;99.90;;;;;;6317359;22;20057;-75
2022/04/10 06:55:40;;;;;;;6.55;4.75;;;5.60;99.90;;;;;;6317912;22;20455;-75
2022/04/10 06:58:19;;;;;;;9.10;5.18;;;5.90;99.90;;;;;;6315829;22;20019;-76
2022/04/10 07:00:45;;;;;;;6.78;4.47;;;6.00;99.90;;;;;;6317707;22;20003;-76
2022/04/10 07:03:10;;;;;;;9.10;4.93;;;6.10;99.90;;;;;;6315049;22;20020;-76
2022/04/10 07:05:37;;;;;;;6.65;4.57;;;6.10;99.90;;;;;;6316619;22;20000;-76
2022/04/10 07:08:02;;;;;;;7.13;4.35;;;6.30;99.90;;;;;;6316356;22;20496;-76
2022/04/10 07:10:31;;;;;;;7.32;4.63;;;6.30;99.90;;;;;;6314666;22;20057;-76
2022/04/10 07:12:57;;;;;;;7.03;4.30;;;6.30;99.90;;;;;;6314172;22;20019;-76
2022/04/10 07:15:23;;;;;;;6.82;3.75;;;6.40;99.90;;;;;;6314181;22;20032;-76
2022/04/10 07:17:49;;;;;;;6.82;3.92;;;6.50;99.90;;;;;;6315866;22;20035;-76
2022/04/10 07:20:14;;;;;;;6.10;4.10;;;6.30;99.90;;;;;;6316079;22;20347;-75
2022/04/10 07:25:27;;;;;;;6.47;4.13;;;6.20;99.90;;;;;;6315393;22;20078;-76
2022/04/10 07:27:53;;;;;;;5.72;4.10;;;6.20;99.90;;;;;;6315869;22;20012;-76
2022/04/10 07:30:18;;;;;;;8.90;4.10;;;6.30;99.90;;;;;;6315461;22;20436;-76
2022/04/10 07:32:54;;;;;;;8.88;4.72;;;6.40;99.90;;;;;;6315620;22;20312;-76
2022/04/10 07:35:27;;;;;;;6.55;3.80;;;6.50;99.90;;;;;;6315123;22;20431;-76
2022/04/10 07:37:53;;;;;;;8.57;4.18;;;6.40;99.90;;;;;;6314200;22;20007;-76
2022/04/10 07:40:22;;;;;;;7.55;4.22;;;6.40;99.90;;;;;;6317478;22;20004;-77
2022/04/10 07:42:51;;;;;;;7.75;4.07;;;6.60;99.90;;;;;;6314764;22;20074;-76
2022/04/10 07:48:04;;;;;;;7.03;3.80;;;6.80;99.90;;;;;;6315732;22;20047;-76
2022/04/10 07:50:35;;;;;;;6.05;4.43;;;6.80;99.90;;;;;;6315345;22;20008;-75
2022/04/10 07:53:02;;;;;;;8.80;4.10;;;6.80;99.90;;;;;;6315006;22;20444;-75
2022/04/10 07:55:28;;;;;;;7.05;4.50;;;7.00;99.90;;;;;;6315016;22;20053;-77
2022/04/10 07:57:54;;;;;;;7.00;4.45;;;7.00;99.90;;;;;;6315181;22;20008;-77
2022/04/10 08:00:26;;;;;;;7.30;4.25;;;7.20;99.90;;;;;;6314449;22;20455;-76
2022/04/10 08:02:52;;;;;;;5.53;4.43;;;7.40;99.90;;;;;;6316585;22;20012;-75
2022/04/10 08:05:21;;;;;;;10.25;4.43;;;7.40;99.90;;;;;;6313978;22;20000;-82
2022/04/10 08:07:46;;;;;;;7.15;4.30;;;7.30;99.90;;;;;;6313756;22;20004;-74
2022/04/10 08:10:14;;;;;;;10.63;4.90;;;7.20;99.90;;;;;;6315505;22;20008;-74
2022/04/10 08:12:40;;;;;;;8.05;4.82;;;7.20;99.90;;;;;;6313709;22;20409;-75
2022/04/10 08:15:07;;;;;;;7.95;4.75;;;7.20;99.90;;;;;;6314562;22;20035;-74
2022/04/10 08:17:33;;;;;;;7.85;4.38;;;7.50;99.90;;;;;;6313290;22;20849;-75
2022/04/10 08:19:58;;;;;;;7.63;4.20;;;7.50;99.90;;;;;;6314373;22;20008;-74
2022/04/10 08:22:27;;;;;;;8.05;4.50;;;7.40;99.90;;;;;;6314718;22;20023;-74
2022/04/10 08:24:53;;;;;;;8.45;4.70;;;7.30;99.90;;;;;;6313709;22;20004;-71
2022/04/10 08:27:19;;;;;;;5.85;4.35;;;7.00;99.90;;;;;;6313710;22;20343;-73
2022/04/10 08:29:46;;;;;;;7.57;4.78;;;7.30;99.90;;;;;;6313651;22;20007;-76
2022/04/10 08:32:12;;;;;;;9.27;4.47;;;7.30;99.90;;;;;;6316226;22;20075;-73
2022/04/10 08:34:37;;;;;;;8.55;4.30;;;7.40;99.90;;;;;;6314782;22;20035;-75
2022/04/10 08:37:06;;;;;;;7.68;4.72;;;7.30;99.90;;;;;;6316200;22;20011;-74
2022/04/10 08:39:32;;;;;;;5.18;4.38;;;7.60;99.90;;;;;;6317908;22;20317;-77
2022/04/10 08:42:04;;;;;;;9.85;4.80;;;7.70;99.90;;;;;;6320194;22;20012;-78
2022/04/10 08:44:31;;;;;;;6.75;4.30;;;7.80;99.90;;;;;;6319449;22;20003;-76
2022/04/10 08:46:58;;;;;;;9.07;4.97;;;7.80;99.90;;;;;;6316563;22;20454;-76
2022/04/10 08:49:31;;;;;;;8.68;4.68;;;8.10;99.90;;;;;;6313880;22;20042;-76
2022/04/10 08:51:58;;;;;;;8.00;4.30;;;8.60;99.90;;;;;;6316492;22;20004;-77
2022/04/10 08:54:25;;;;;;;8.27;3.70;;;9.20;99.90;;;;;;6315856;22;20000;-75
2022/04/10 08:56:55;;;;;;;5.95;3.60;;;9.40;99.90;;;;;;6316493;22;20008;-76
2022/04/10 08:59:21;;;;;;;6.18;3.95;;;9.40;99.90;;;;;;6315467;22;20451;-74
2022/04/10 09:01:54;;;;;;;8.23;3.88;;;9.10;99.90;;;;;;6316152;22;20008;-75
2022/04/10 09:04:20;;;;;;;6.30;3.92;;;8.90;99.90;;;;;;6316807;22;20023;-76
2022/04/10 09:07:15;;;;;;;6.10;3.70;;;8.60;99.90;;;;;;6315871;22;20069;-74
2022/04/10 09:09:51;;;;;;;9.15;4.40;;;8.30;99.90;;;;;;6302276;22;20031;-76
2022/04/10 09:12:17;;;;;;;7.22;3.50;;;7.90;99.90;;;;;;6316220;22;20014;-74
2022/04/10 09:14:43;;;;;;;5.95;4.13;;;7.90;99.90;;;;;;6314905;22;20008;-74
2022/04/10 09:17:16;;;;;;;7.05;3.80;;;7.90;99.90;;;;;;6315250;22;20000;-73
2022/04/10 09:19:53;;;;;;;6.65;3.50;;;7.70;99.90;;;;;;6313246;22;20047;-74
2022/04/10 09:22:26;;;;;;;7.18;3.78;;;7.60;99.90;;;;;;6315769;22;20007;-73
2022/04/10 09:25:05;;;;;;;7.25;4.60;;;7.40;99.90;;;;;;6313918;22;20006;-74
2022/04/10 09:27:36;;;;;;;5.65;3.90;;;7.30;99.90;;;;;;6315908;22;20010;-74
2022/04/10 09:30:06;;;;;;;7.25;3.72;;;7.10;99.90;;;;;;6313991;22;20008;-73
2022/04/10 09:32:38;;;;;;;5.82;3.80;;;6.80;99.90;;;;;;6315086;22;20054;-72
2022/04/10 09:35:03;;;;;;;4.88;3.70;;;6.60;99.90;;;;;;6313815;22;20371;-73
2022/04/10 09:37:32;;;;;;;7.30;3.80;;;6.50;99.90;;;;;;6316029;22;20007;-80
2022/04/10 09:40:25;;;;;;;7.68;4.13;;;6.60;99.90;;;;;;6315999;22;20012;-78
2022/04/10 09:42:56;;;;;;;5.78;3.97;;;6.50;99.90;;;;;;6303138;22;20042;-75
2022/04/10 09:45:36;;;;;;;8.50;4.43;;;6.60;99.90;;;;;;6317417;22;20004;-80
2022/04/10 09:48:26;;;;;;;8.05;4.75;;;6.60;99.90;;;;;;6321084;22;20070;-78
2022/04/10 09:50:56;;;;;;;7.47;4.60;;;6.60;99.90;;;;;;6322413;22;20046;-77
2022/04/10 09:53:22;;;;;;;7.88;5.10;;;6.80;99.90;;;;;;6321720;22;20475;-78
2022/04/10 09:55:58;;;;;;;7.22;5.10;;;7.30;99.90;;;;;;6322194;22;20004;-78
2022/04/10 09:58:25;;;;;;;7.85;5.00;;;7.40;99.90;;;;;;6316603;22;20359;-75
2022/04/10 10:00:53;;;;;;;7.35;5.03;;;7.60;99.90;;;;;;6315884;22;20051;-78
2022/04/10 10:03:21;;;;;;;8.45;5.10;;;7.60;99.90;;;;;;6318363;22;20458;-73
2022/04/10 10:05:50;;;;;;;8.23;5.10;;;7.80;99.90;;;;;;6318241;22;20003;-76
2022/04/10 10:08:18;;;;;;;7.82;4.75;;;8.10;99.90;;;;;;6288972;22;20016;-74
2022/04/10 10:10:58;;;;;;;6.72;4.72;;;8.30;99.90;;;;;;6313657;22;20035;-75
2022/04/10 10:16:13;;;;;;;7.10;4.90;;;8.70;99.90;;;;;;6294169;22;20019;-79
2022/04/10 10:18:40;;;;;;;8.63;5.60;;;8.60;99.90;;;;;;6322641;22;20061;-77
2022/04/10 10:21:07;;;;;;;6.72;4.68;;;8.70;99.90;;;;;;6291962;22;20008;-78
2022/04/10 10:23:36;;;;;;;7.22;4.47;;;8.90;99.90;;;;;;6324284;22;20006;-78
2022/04/10 10:26:34;;;;;;;5.43;3.63;;;8.80;99.90;;;;;;6297040;22;20715;-77
2022/04/10 10:29:19;;;;;;;6.10;3.95;;;8.80;99.90;;;;;;6255691;22;20553;-82
2022/04/10 10:32:03;;;;;;;7.90;4.05;;;8.80;99.90;;;;;;6262299;22;20066;-78
2022/04/10 10:34:30;;;;;;;4.85;3.88;;;8.90;99.90;;;;;;6285395;22;20012;-78
2022/04/10 10:36:57;;;;;;;6.20;4.60;;;8.70;99.90;;;;;;6287707;22;20003;-79
2022/04/10 10:39:23;;;;;;;6.00;4.18;;;9.10;99.90;;;;;;6256991;22;20008;-77
2022/04/10 10:41:52;;;;;;;8.15;4.35;;;9.10;99.90;;;;;;6285868;22;20083;-76
2022/04/10 10:44:26;;;;;;;7.60;4.95;;;9.30;99.90;;;;;;6256728;22;20464;-76
2022/04/10 10:47:00;;;;;;;7.32;4.55;;;10.10;99.90;;;;;;6287878;22;20011;-78
2022/04/10 10:49:28;;;;;;;7.95;5.15;;;10.20;99.90;;;;;;6285126;22;20012;-79
2022/04/10 10:51:56;;;;;;;7.43;4.90;;;10.60;99.90;;;;;;6283253;22;20078;-77
2022/04/10 10:54:24;;;;;;;7.32;4.32;;;10.40;99.90;;;;;;6284747;22;20806;-78
2022/04/10 10:56:50;;;;;;;6.70;4.65;;;10.40;99.90;;;;;;6290029;22;20000;-78
2022/04/10 10:59:22;;;;;;;7.75;4.57;;;10.50;99.90;;;;;;6261517;22;20012;-78
2022/04/10 11:02:04;;;;;;;8.15;5.25;;;10.60;99.90;;;;;;6261592;22;20167;-77
2022/04/10 11:04:43;;;;;;;6.97;5.18;;;10.40;99.90;;;;;;6261217;22;20000;-78
2022/04/10 11:07:13;;;;;;;8.98;5.25;;;10.30;99.90;;;;;;6286776;22;20009;-78
2022/04/10 11:10:00;;;;;;;6.60;5.07;;;10.50;99.90;;;;;;6258152;22;20004;-79
2022/04/10 11:12:33;;;;;;;8.75;5.43;;;10.70;99.90;;;;;;6285521;22;20016;-78
2022/04/10 11:15:29;;;;;;;6.30;5.05;;;10.70;99.90;;;;;;6258334;22;20012;-78
2022/04/10 11:17:55;;;;;;;8.38;5.10;;;10.80;99.90;;;;;;6255401;22;20430;-77
2022/04/10 11:20:23;;;;;;;8.05;4.90;;;10.70;99.90;;;;;;6286456;22;20015;-78
2022/04/10 11:22:55;;;;;;;8.82;5.70;;;10.40;99.90;;;;;;6286118;22;20426;-78
2022/04/10 11:25:38;;;;;;;5.90;5.30;;;10.10;99.90;;;;;;6285722;22;20711;-78
2022/04/10 11:28:07;;;;;;;7.68;5.28;;;10.30;99.90;;;;;;6258471;22;20066;-78
2022/04/10 11:30:36;;;;;;;7.97;5.55;;;11.10;99.90;;;;;;6286848;22;20426;-78
2022/04/10 11:33:05;;;;;;;6.95;5.22;;;11.50;98.60;;;;;;6259763;22;20008;-79
2022/04/10 11:35:35;;;;;;;5.82;4.55;;;11.50;99.20;;;;;;6287020;22;20004;-78
2022/04/10 11:38:03;;;;;;;7.00;5.05;;;12.10;98.20;;;;;;6291426;22;20001;-78
2022/04/10 11:40:33;;;;;;;6.95;5.05;;;12.20;98.20;;;;;;6261999;22;20101;-78
2022/04/10 11:43:02;;;;;;;6.70;5.20;;;12.00;98.20;;;;;;6259406;22;20020;-78
2022/04/10 11:45:29;;;;;;;7.57;5.28;;;11.70;95.50;;;;;;6286246;22;20486;-78
2022/04/10 11:47:55;;;;;;;7.90;5.53;;;11.50;98.10;;;;;;6286378;22;20032;-78
2022/04/10 11:50:22;;;;;;;5.85;5.00;;;11.80;96.40;;;;;;6258573;22;20095;-78
2022/04/10 11:53:06;;;;;;;10.15;5.38;;;11.70;97.70;;;;;;6258760;22;20099;-78
2022/04/10 11:55:43;;;;;;;8.70;5.28;;;12.10;96.70;;;;;;6286182;22;19993;-78
2022/04/10 11:58:16;;;;;;;7.47;4.63;;;11.30;96.40;;;;;;6258929;22;20015;-78
2022/04/10 12:00:50;;;;;;;6.40;5.13;;;11.20;96.80;;;;;;6259341;22;20008;-78
2022/04/10 12:03:17;;;;;;;9.77;5.80;;;11.40;97.90;;;;;;6259308;22;20020;-78
2022/04/10 12:05:43;;;;;;;7.40;5.50;;;11.40;97.50;;;;;;6260317;22;20011;-78
2022/04/10 12:08:09;;;;;;;6.35;5.38;;;11.50;97.00;;;;;;6260895;22;20150;-78
2022/04/10 12:10:35;;;;;;;6.07;4.90;;;11.60;97.40;;;;;;6261198;22;20031;-78
2022/04/10 12:13:02;;;;;;;8.25;5.68;;;12.00;95.60;;;;;;6261268;22;20020;-78
2022/04/10 12:15:28;;;;;;;7.90;5.07;;;11.80;95.80;;;;;;6261340;22;20512;-78
2022/04/10 12:18:13;;;;;;;6.97;5.40;;;12.10;95.10;;;;;;6260635;22;20028;-78
2022/04/10 12:20:43;;;;;;;8.57;5.45;;;12.30;96.70;;;;;;6261596;22;20087;-78
2022/04/10 12:23:25;;;;;;;8.77;5.22;;;12.40;94.90;;;;;;6261584;22;20052;-78
2022/04/10 12:25:55;;;;;;;9.20;5.32;;;12.50;96.20;;;;;;6288098;22;20080;-78
2022/04/10 12:28:21;;;;;;;9.55;5.60;;;12.70;93.30;;;;;;6260876;22;20053;-78
2022/04/10 12:30:48;;;;;;;7.47;5.15;;;12.90;94.50;;;;;;6261002;22;20004;-78
2022/04/10 12:33:14;;;;;;;6.85;5.00;;;12.30;93.80;;;;;;6260536;22;20055;-78
2022/04/10 12:35:43;;;;;;;6.40;5.35;;;11.60;94.10;;;;;;6287389;22;20000;-78
2022/04/10 12:38:16;;;;;;;7.72;5.00;;;10.90;96.80;;;;;;6288087;22;20062;-78
2022/04/10 12:40:42;;;;;;;9.90;5.50;;;10.50;97.60;;;;;;6261984;22;20004;-78
2022/04/10 12:43:09;;;;;;;8.85;5.85;;;10.40;96.60;;;;;;6261411;22;20022;-78
2022/04/10 12:45:37;;;;;;;6.53;5.35;;;10.40;96.40;;;;;;6288884;22;20004;-78
2022/04/10 12:48:22;;;;;;;5.93;5.07;;;10.20;98.70;;;;;;6261790;22;20008;-78
2022/04/10 12:51:04;;;;;;;11.20;5.93;;;10.00;99.80;;;;;;6260874;22;20026;-78
2022/04/10 12:53:30;;;;;;;9.75;5.97;;;9.80;99.90;;;;;;6259890;22;20035;-79
2022/04/10 12:55:56;;;;;;;7.55;6.10;;;9.60;99.90;;;;;;6292036;22;20000;-78
2022/04/10 12:58:21;;;;;;;9.18;6.70;;;9.50;99.90;;;;;;6263588;22;20012;-78
2022/04/10 13:00:48;;;;;;;13.70;9.07;;;9.40;99.90;;;;;;6287289;22;20339;-78
2022/04/10 13:03:27;;;;;;;14.93;8.55;;;9.30;99.90;;;;;;6288617;22;20540;-78
2022/04/10 13:05:57;;;;;;;12.43;9.05;;;9.30;99.90;;;;;;6262022;22;20054;-78
2022/04/10 13:08:28;;;;;;;11.63;9.00;;;9.10;99.90;;;;;;6287068;22;20009;-78
2022/04/10 13:10:56;;;;;;;9.73;7.65;;;9.10;99.90;;;;;;6263849;22;20008;-78
2022/04/10 13:13:22;;;;;;;9.13;6.65;;;9.10;99.90;;;;;;6291883;22;20710;-78
2022/04/10 13:15:48;;;;;;;11.43;7.75;;;9.00;99.90;;;;;;6260826;22;20015;-78
2022/04/10 13:18:15;;;;;;;20.08;12.45;;;8.90;99.90;;;;;;6261528;22;20015;-78
2022/04/10 13:20:41;;;;;;;18.73;12.23;;;8.70;99.90;;;;;;6264159;22;20011;-78
2022/04/10 13:23:07;;;;;;;8.25;6.45;;;8.60;99.90;;;;;;6263729;22;20019;-77
2022/04/10 13:25:33;;;;;;;16.40;10.88;;;8.60;99.90;;;;;;6290089;22;20004;-78
2022/04/10 13:27:59;;;;;;;11.95;8.48;;;8.50;99.90;;;;;;6261976;22;20004;-77
2022/04/10 13:30:25;;;;;;;11.27;6.68;;;8.40;99.90;;;;;;6289610;22;20024;-78
2022/04/10 13:32:51;;;;;;;8.05;6.50;;;8.40;99.90;;;;;;6262830;22;20020;-78
2022/04/10 13:35:16;;;;;;;9.13;7.15;;;8.60;99.90;;;;;;6262322;22;20008;-78
2022/04/10 13:37:43;;;;;;;14.05;9.52;;;8.60;99.90;;;;;;6289690;22;20008;-78
2022/04/10 13:40:11;;;;;;;10.98;7.18;;;8.60;99.90;;;;;;6262113;22;20010;-78
2022/04/10 13:42:36;;;;;;;8.90;5.70;;;8.50;99.90;;;;;;6262927;22;20078;-78
2022/04/10 13:45:02;;;;;;;9.25;5.72;;;9.00;99.90;;;;;;6264116;22;20008;-78
2022/04/10 13:47:28;;;;;;;8.50;6.00;;;9.30;99.90;;;;;;6264288;22;20012;-78
2022/04/10 13:49:54;;;;;;;9.65;5.82;;;9.90;99.90;;;;;;6264614;22;20014;-78
2022/04/10 13:52:19;;;;;;;8.00;5.30;;;10.70;99.90;;;;;;6263842;22;20016;-77
2022/04/10 13:54:45;;;;;;;6.60;4.70;;;11.50;99.90;;;;;;6264105;22;20008;-77
2022/04/10 13:57:11;;;;;;;6.32;4.00;;;12.60;99.90;;;;;;6263959;22;20083;-78
2022/04/10 13:59:36;;;;;;;7.13;4.20;;;13.50;99.70;;;;;;6264345;22;20012;-78
2022/04/10 14:02:05;;;;;;;6.55;3.83;;;13.80;99.20;;;;;;6263497;22;20070;-78
2022/04/10 14:04:31;;;;;;;6.22;3.92;;;14.10;95.90;;;;;;6263539;22;20004;-78
2022/04/10 14:06:57;;;;;;;4.85;4.00;;;14.70;96.40;;;;;;6291594;22;20005;-78
2022/04/10 14:09:23;;;;;;;6.68;3.85;;;14.90;94.70;;;;;;6263075;22;20004;-78
2022/04/10 14:11:49;;;;;;;4.60;3.80;;;15.00;95.50;;;;;;6263413;22;20131;-78
2022/04/10 14:14:15;;;;;;;5.70;3.72;;;15.00;91.40;;;;;;6261479;22;20008;-78
2022/04/10 14:16:41;;;;;;;5.45;3.80;;;13.80;91.90;;;;;;6270085;22;20012;-78
2022/04/10 14:19:06;;;;;;;5.00;3.47;;;12.90;93.90;;;;;;6266697;22;20059;-78
2022/04/10 14:21:32;;;;;;;5.82;3.63;;;12.50;92.70;;;;;;6266015;22;20502;-78
2022/04/10 14:24:01;;;;;;;4.35;3.47;;;12.50;93.70;;;;;;6266966;22;20008;-78
2022/04/10 14:26:27;;;;;;;7.22;5.03;;;12.10;94.60;;;;;;6264898;22;20008;-78
2022/04/10 14:28:53;;;;;;;6.68;4.10;;;11.60;96.50;;;;;;6264157;22;20064;-78
2022/04/10 14:31:19;;;;;;;6.32;4.25;;;11.30;97.80;;;;;;6265958;22;20012;-78
2022/04/10 14:33:45;;;;;;;6.22;3.83;;;11.10;96.60;;;;;;6265987;22;20059;-78
2022/04/10 14:36:10;;;;;;;7.05;4.05;;;11.00;96.50;;;;;;6264331;22;20008;-78
2022/04/10 14:38:36;;;;;;;5.38;3.70;;;10.70;96.30;;;;;;6265160;22;20008;-78
2022/04/10 14:41:04;;;;;;;6.97;4.10;;;10.30;98.20;;;;;;6264756;22;20016;-78
2022/04/10 14:43:30;;;;;;;6.03;3.95;;;10.10;98.10;;;;;;6293035;22;20008;-78
2022/04/10 14:45:55;;;;;;;8.82;3.78;;;9.90;98.00;;;;;;6265324;22;20004;-78
2022/04/10 14:48:21;;;;;;;6.05;4.05;;;9.60;97.30;;;;;;6264044;22;20344;-78
2022/04/10 14:50:47;;;;;;;6.72;4.03;;;9.40;98.90;;;;;;6293291;22;20004;-78
2022/04/10 14:53:12;;;;;;;6.15;3.80;;;9.40;98.00;;;;;;6267037;22;20343;-77
2022/04/10 14:55:38;;;;;;;6.30;3.70;;;9.20;98.60;;;;;;6266465;22;20008;-77
2022/04/10 14:58:03;;;;;;;6.78;4.10;;;9.00;99.50;;;;;;6266562;22;20025;-77
2022/04/10 15:00:29;;;;;;;7.57;4.30;;;8.60;99.90;;;;;;6265345;22;20084;-77
2022/04/10 15:02:56;;;;;;;7.68;4.47;;;8.30;99.90;;;;;;6265324;22;20012;-78
2022/04/10 15:05:22;;;;;;;4.15;3.40;;;8.20;99.90;;;;;;6262833;22;20052;-78
2022/04/10 15:07:51;;;;;;;5.07;3.67;;;8.00;99.90;;;;;;6263352;22;20027;-77
2022/04/10 15:10:18;;;;;;;7.28;3.97;;;7.80;99.90;;;;;;6263810;22;20096;-78
2022/04/10 15:12:43;;;;;;;7.18;4.47;;;7.80;99.90;;;;;;6263257;22;20427;-78
2022/04/10 15:15:09;;;;;;;7.97;4.72;;;7.70;99.90;;;;;;6262555;22;20008;-78
2022/04/10 15:17:35;;;;;;;6.85;4.28;;;7.70;99.90;;;;;;6289962;22;20012;-78
2022/04/10 15:20:02;;;;;;;5.05;4.00;;;7.80;99.90;;;;;;6262321;22;20027;-78
2022/04/10 15:22:28;;;;;;;6.63;5.05;;;7.80;99.90;;;;;;6262052;22;20059;-78
2022/04/10 15:24:54;;;;;;;7.03;4.88;;;7.90;99.90;;;;;;6288977;22;20387;-78
2022/04/10 15:27:21;;;;;;;6.55;4.45;;;7.80;99.90;;;;;;6289558;22;20000;-78
2022/04/10 15:29:47;;;;;;;6.95;4.80;;;7.80;99.90;;;;;;6288575;22;20062;-78
2022/04/10 15:32:12;;;;;;;6.32;4.15;;;7.70;99.90;;;;;;6260525;22;20056;-77
2022/04/10 15:34:38;;;;;;;4.97;3.95;;;7.80;99.90;;;;;;6290816;22;20000;-78
2022/04/10 15:37:03;;;;;;;6.75;4.75;;;7.90;99.90;;;;;;6294718;22;20432;-78
2022/04/10 15:39:29;;;;;;;6.43;4.03;;;7.90;99.90;;;;;;6290571;22;20004;-78
2022/04/10 15:41:54;;;;;;;5.28;3.95;;;7.90;99.90;;;;;;6264597;22;20019;-78
2022/04/10 15:44:20;;;;;;;5.53;3.78;;;8.10;99.90;;;;;;6264101;22;20074;-78
2022/04/10 15:46:45;;;;;;;7.05;3.75;;;8.20;99.90;;;;;;6265767;22;20004;-78
2022/04/10 15:49:11;;;;;;;4.95;3.42;;;8.40;99.90;;;;;;6292650;22;20015;-78
2022/04/10 15:51:37;;;;;;;6.57;3.40;;;8.60;99.90;;;;;;6292859;22;20004;-78
2022/04/10 15:54:03;;;;;;;7.22;3.20;;;8.70;99.90;;;;;;6265411;22;20004;-78
2022/04/10 15:56:28;;;;;;;4.22;3.53;;;8.70;99.90;;;;;;6292485;22;20011;-78
2022/04/10 15:58:54;;;;;;;5.28;3.72;;;8.90;99.90;;;;;;6292078;22;20014;-78
2022/04/10 16:01:20;;;;;;;4.97;3.50;;;9.00;99.90;;;;;;6264816;22;20008;-78
2022/04/10 16:03:45;;;;;;;5.72;3.38;;;9.20;99.90;;;;;;6292988;22;20008;-78
2022/04/10 16:06:11;;;;;;;5.43;3.55;;;9.30;99.90;;;;;;6265660;22;20012;-78
2022/04/10 16:08:37;;;;;;;3.65;2.95;;;9.40;99.90;;;;;;6264790;22;20012;-78
2022/04/10 16:11:03;;;;;;;4.65;3.55;;;9.20;99.90;;;;;;6292474;22;20046;-78
2022/04/10 16:13:31;;;;;;;4.30;3.78;;;9.30;99.90;;;;;;6265091;22;20478;-78
2022/04/10 16:15:57;;;;;;;4.68;3.53;;;9.30;99.90;;;;;;6296736;22;20019;-77
2022/04/10 16:18:22;;;;;;;6.22;3.20;;;9.20;99.90;;;;;;6313719;22;20016;-77
2022/04/10 16:20:51;;;;;;;6.53;3.63;;;9.30;99.90;;;;;;6315701;22;20046;-75
2022/04/10 16:23:18;;;;;;;3.85;3.45;;;9.20;99.90;;;;;;6315249;22;20680;-75
2022/04/10 16:25:45;;;;;;;6.18;3.70;;;9.30;99.90;;;;;;6315118;22;19999;-76
2022/04/10 16:30:55;;;;;;;5.38;3.63;;;10.90;99.90;;;;;;6315122;22;20343;-76
2022/04/10 16:33:20;;;;;;;4.32;2.95;;;14.30;96.00;;;;;;6314988;22;20043;-77
2022/04/10 16:35:46;;;;;;;5.35;3.47;;;14.80;92.20;;;;;;6315019;22;19999;-77
2022/04/10 16:38:13;;;;;;;5.10;2.90;;;15.00;92.00;;;;;;6314644;22;20008;-77
2022/04/10 16:40:43;;;;;;;4.85;3.00;;;16.00;90.50;;;;;;6315059;22;20075;-76
2022/04/10 16:43:09;;;;;;;5.85;3.83;;;15.50;89.80;;;;;;6315193;22;20418;-77
2022/04/10 16:45:37;;;;;;;4.75;3.10;;;14.50;89.90;;;;;;6313829;22;20007;-77
2022/04/10 16:48:02;;;;;;;5.20;2.10;;;13.50;92.10;;;;;;6314314;22;20012;-77
2022/04/10 16:50:28;;;;;;;2.53;2.03;;;13.00;90.40;;;;;;6314532;22;20004;-76
2022/04/10 16:52:57;;;;;;;3.50;1.92;;;12.30;91.20;;;;;;6313522;22;20007;-83
2022/04/10 16:55:23;;;;;;;3.83;2.10;;;11.90;92.30;;;;;;6313851;22;20011;-75
2022/04/10 16:57:48;;;;;;;4.28;2.70;;;11.50;92.50;;;;;;6313449;22;20350;-77
2022/04/10 17:00:28;;;;;;;3.67;2.40;;;11.10;93.40;;;;;;6314917;22;20008;-83
2022/04/10 17:02:54;;;;;;;4.35;2.40;;;10.60;94.50;;;;;;6315561;22;20008;-74
2022/04/10 17:05:21;;;;;;;4.60;2.67;;;10.30;94.20;;;;;;6314569;22;19999;-75
2022/04/10 17:07:47;;;;;;;5.40;2.45;;;9.90;94.30;;;;;;6316022;22;20018;-77
2022/04/10 17:10:13;;;;;;;7.03;2.50;;;9.60;95.50;;;;;;6313221;22;20015;-74